createdAt,value
2023-01-20T00:01:22.249Z,11.50
2023-01-20T00:03:49.191Z,13.23
2023-01-20T00:06:15.700Z,11.63
2023-01-20T00:08:42.383Z,10.93
2023-01-20T00:11:12.559Z,11.93
2023-01-20T00:13:39.588Z,11.67
2023-01-20T00:16:08.044Z,12.03
2023-01-20T00:18:35.176Z,11.40
2023-01-20T00:21:03.468Z,11.50
2023-01-20T00:23:30.028Z,11.73
2023-01-20T00:25:56.551Z,12.13
2023-01-20T00:28:23.194Z,12.03
2023-01-20T00:30:49.777Z,11.63
2023-01-20T00:33:16.317Z,11.43
2023-01-20T00:35:42.939Z,11.50
2023-01-20T00:38:09.721Z,11.67
2023-01-20T00:40:36.272Z,10.83
2023-01-20T00:43:02.916Z,11.43
2023-01-20T00:45:29.417Z,10.63
2023-01-20T00:47:55.924Z,11.30
2023-01-20T00:50:22.557Z,11.67
2023-01-20T00:52:49.101Z,11.43
2023-01-20T00:55:16.038Z,10.93
2023-01-20T00:57:42.644Z,10.17
2023-01-20T01:00:09.702Z,11.83
2023-01-20T01:02:40.130Z,12.57
2023-01-20T01:05:06.949Z,11.50
2023-01-20T01:07:33.445Z,10.90
2023-01-20T01:09:59.961Z,11.60
2023-01-20T01:12:26.757Z,11.10
2023-01-20T01:14:53.308Z,10.60
2023-01-20T01:17:19.823Z,11.20
2023-01-20T01:19:46.379Z,10.50
2023-01-20T01:22:12.966Z,10.60
2023-01-20T01:24:39.553Z,11.60
2023-01-20T01:27:06.156Z,11.07
2023-01-20T01:29:32.844Z,11.20
2023-01-20T01:31:59.407Z,11.03
2023-01-20T01:34:26.504Z,10.87
2023-01-20T01:36:53.154Z,10.60
2023-01-20T01:39:19.701Z,10.60
2023-01-20T01:41:46.213Z,10.70
2023-01-20T01:44:14.047Z,10.87
2023-01-20T01:46:41.594Z,11.27
2023-01-20T01:49:21.351Z,11.00
2023-01-20T01:52:09.221Z,10.73
2023-01-20T01:54:42.898Z,10.47
2023-01-20T01:57:09.757Z,10.50
2023-01-20T01:59:37.520Z,11.03
2023-01-20T02:02:04.272Z,11.57
2023-01-20T02:04:33.578Z,11.00
2023-01-20T02:07:07.915Z,10.17
2023-01-20T02:09:34.783Z,10.53
2023-01-20T02:12:04.480Z,10.27
2023-01-20T02:14:34.522Z,10.67
2023-01-20T02:17:32.479Z,10.07
2023-01-20T02:20:32.516Z,10.07
2023-01-20T02:23:15.777Z,9.63
2023-01-20T02:25:57.422Z,10.60
2023-01-20T02:28:45.697Z,10.40
2023-01-20T02:31:49.566Z,10.77
2023-01-20T02:34:40.201Z,11.27
2023-01-20T02:37:12.485Z,10.43
2023-01-20T02:39:42.054Z,10.93
2023-01-20T02:42:19.412Z,10.00
2023-01-20T02:44:56.035Z,11.03
2023-01-20T02:47:51.531Z,10.20
2023-01-20T02:50:41.245Z,11.23
2023-01-20T02:53:08.712Z,10.57
2023-01-20T02:55:39.473Z,10.57
2023-01-20T02:58:14.916Z,10.07
2023-01-20T03:00:46.445Z,10.40
2023-01-20T03:03:17.599Z,10.57
2023-01-20T03:05:49.545Z,10.00
2023-01-20T03:08:17.027Z,10.07
2023-01-20T03:10:45.685Z,9.90
2023-01-20T03:13:22.137Z,9.73
2023-01-20T03:16:00.779Z,9.60
2023-01-20T03:18:29.567Z,10.20
2023-01-20T03:20:57.720Z,10.40
2023-01-20T03:23:25.905Z,9.53
2023-01-20T03:25:52.509Z,10.33
2023-01-20T03:28:19.032Z,9.87
2023-01-20T03:30:45.589Z,9.60
2023-01-20T03:33:12.709Z,9.27
2023-01-20T03:35:39.833Z,9.87
2023-01-20T03:38:06.642Z,10.53
2023-01-20T03:40:42.072Z,10.53
2023-01-20T03:43:27.344Z,9.37
2023-01-20T03:46:04.733Z,10.07
2023-01-20T03:48:50.654Z,9.13
2023-01-20T03:51:35.331Z,9.87
2023-01-20T03:54:07.196Z,10.57
2023-01-20T03:56:42.385Z,9.73
2023-01-20T03:59:11.479Z,9.73
2023-01-20T04:01:40.400Z,9.83
2023-01-20T04:04:11.472Z,10.03
2023-01-20T04:06:39.239Z,9.90
2023-01-20T04:09:08.877Z,9.17
2023-01-20T04:11:35.682Z,9.07
2023-01-20T04:14:02.695Z,9.03
2023-01-20T04:16:29.233Z,9.77
2023-01-20T04:18:55.855Z,9.73
2023-01-20T04:21:30.423Z,9.30
2023-01-20T04:24:06.709Z,10.17
2023-01-20T04:26:33.247Z,9.30
2023-01-20T04:28:59.828Z,10.60
2023-01-20T04:31:31.140Z,10.33
2023-01-20T04:33:58.048Z,9.27
2023-01-20T04:36:24.549Z,9.17
2023-01-20T04:38:51.026Z,9.27
2023-01-20T04:41:17.575Z,9.77
2023-01-20T04:43:45.296Z,10.07
2023-01-20T04:46:12.902Z,9.57
2023-01-20T04:48:39.416Z,9.87
2023-01-20T04:51:07.099Z,11.10
2023-01-20T04:53:33.980Z,10.47
2023-01-20T04:56:00.597Z,11.23
2023-01-20T04:58:27.271Z,11.77
2023-01-20T05:00:53.894Z,9.83
2023-01-20T05:03:20.480Z,10.27
2023-01-20T05:05:56.056Z,9.87
2023-01-20T05:08:22.662Z,9.93
2023-01-20T05:10:49.409Z,9.63
2023-01-20T05:13:16.072Z,10.77
2023-01-20T05:15:43.500Z,9.63
2023-01-20T05:18:10.039Z,10.67
2023-01-20T05:20:36.534Z,9.97
2023-01-20T05:23:03.152Z,9.23
2023-01-20T05:25:29.665Z,10.27
2023-01-20T05:27:56.135Z,10.03
2023-01-20T05:30:22.779Z,9.77
2023-01-20T05:32:50.333Z,10.20
2023-01-20T05:35:17.304Z,9.60
2023-01-20T05:37:44.336Z,9.10
2023-01-20T05:40:11.492Z,10.40
2023-01-20T05:42:38.085Z,9.73
2023-01-20T05:45:05.012Z,9.90
2023-01-20T05:47:31.528Z,9.50
2023-01-20T05:49:58.079Z,9.50
2023-01-20T05:52:24.632Z,10.03
2023-01-20T05:54:51.144Z,9.17
2023-01-20T05:57:18.402Z,9.80
2023-01-20T05:59:47.736Z,9.73
2023-01-20T06:02:18.858Z,9.93
2023-01-20T06:04:46.533Z,9.50
2023-01-20T06:07:13.699Z,10.10
2023-01-20T06:09:40.248Z,9.33
2023-01-20T06:12:06.876Z,9.67
2023-01-20T06:14:33.613Z,10.43
2023-01-20T06:17:00.241Z,8.90
2023-01-20T06:19:26.759Z,9.80
2023-01-20T06:21:53.748Z,9.83
2023-01-20T06:24:20.317Z,10.73
2023-01-20T06:26:46.840Z,9.90
2023-01-20T06:29:13.415Z,10.40
2023-01-20T06:31:40.012Z,10.03
2023-01-20T06:34:06.591Z,11.50
2023-01-20T06:36:33.138Z,11.23
2023-01-20T06:38:59.684Z,11.07
2023-01-20T06:41:26.381Z,11.67
2023-01-20T06:43:52.960Z,10.40
2023-01-20T06:46:19.517Z,10.70
2023-01-20T06:48:46.358Z,10.33
2023-01-20T06:51:17.975Z,11.27
2023-01-20T06:53:44.788Z,10.23
2023-01-20T06:56:15.450Z,9.87
2023-01-20T06:58:42.530Z,11.67
2023-01-20T07:01:14.971Z,10.53
2023-01-20T07:03:43.571Z,11.90
2023-01-20T07:06:32.136Z,11.30
2023-01-20T07:08:59.667Z,10.37
2023-01-20T07:11:27.009Z,10.43
2023-01-20T07:13:53.595Z,11.13
2023-01-20T07:16:20.283Z,10.63
2023-01-20T07:18:51.169Z,10.93
2023-01-20T07:21:18.341Z,10.07
2023-01-20T07:23:45.378Z,9.63
2023-01-20T07:26:14.368Z,10.00
2023-01-20T07:28:41.056Z,9.60
2023-01-20T07:31:19.229Z,10.50
2023-01-20T07:33:46.347Z,11.20
2023-01-20T07:36:13.846Z,13.87
2023-01-20T07:38:40.681Z,14.97
2023-01-20T07:41:10.877Z,13.53
2023-01-20T07:43:37.725Z,10.77
2023-01-20T07:46:05.122Z,10.17
2023-01-20T07:48:32.917Z,9.73
2023-01-20T07:51:05.783Z,9.37
2023-01-20T07:53:33.942Z,9.07
2023-01-20T07:56:04.633Z,10.77
2023-01-20T07:58:31.431Z,10.67
2023-01-20T08:00:58.002Z,11.80
2023-01-20T08:03:27.359Z,10.83
2023-01-20T08:05:54.063Z,12.10
2023-01-20T08:08:20.559Z,11.50
2023-01-20T08:10:53.780Z,13.07
2023-01-20T08:13:20.353Z,13.57
2023-01-20T08:15:46.808Z,13.33
2023-01-20T08:18:13.286Z,13.37
2023-01-20T08:20:40.731Z,11.93
2023-01-20T08:23:07.373Z,11.47
2023-01-20T08:25:33.889Z,10.50
2023-01-20T08:28:00.468Z,10.63
2023-01-20T08:30:27.143Z,10.63
2023-01-20T08:32:53.899Z,10.40
2023-01-20T08:35:20.956Z,10.03
2023-01-20T08:37:47.884Z,9.20
2023-01-20T08:40:14.635Z,9.83
2023-01-20T08:42:41.318Z,9.43
2023-01-20T08:45:09.195Z,9.70
2023-01-20T08:47:37.685Z,9.33
2023-01-20T08:50:06.392Z,9.23
2023-01-20T08:52:34.173Z,9.80
2023-01-20T08:55:00.817Z,9.30
2023-01-20T08:57:27.999Z,9.80
2023-01-20T08:59:54.727Z,10.03
2023-01-20T09:02:23.223Z,10.70
2023-01-20T09:04:50.227Z,9.90
2023-01-20T09:07:18.275Z,10.53
2023-01-20T09:09:44.799Z,10.50
2023-01-20T09:12:11.316Z,11.00
2023-01-20T09:14:38.009Z,10.87
2023-01-20T09:17:04.685Z,10.23
2023-01-20T09:19:31.338Z,9.73
2023-01-20T09:21:58.093Z,10.27
2023-01-20T09:24:24.666Z,10.43
2023-01-20T09:26:51.650Z,10.50
2023-01-20T09:29:19.737Z,10.17
2023-01-20T09:31:51.448Z,9.70
2023-01-20T09:34:21.878Z,10.10
2023-01-20T09:36:53.014Z,9.73
2023-01-20T09:39:38.119Z,10.07
2023-01-20T09:42:32.694Z,10.17
2023-01-20T09:45:22.827Z,9.20
2023-01-20T09:47:49.410Z,10.37
2023-01-20T09:50:37.467Z,9.67
2023-01-20T09:53:47.267Z,9.37
2023-01-20T09:56:18.017Z,8.83
2023-01-20T09:59:09.712Z,10.03
2023-01-20T10:01:52.304Z,9.53
2023-01-20T10:04:41.351Z,9.17
2023-01-20T10:07:13.344Z,9.90
2023-01-20T10:09:48.381Z,9.50
2023-01-20T10:12:19.253Z,10.13
2023-01-20T10:14:55.282Z,8.70
2023-01-20T10:17:31.099Z,9.07
2023-01-20T10:20:09.325Z,8.40
2023-01-20T10:22:41.271Z,8.83
2023-01-20T10:25:48.436Z,8.50
2023-01-20T10:28:17.103Z,9.20
2023-01-20T10:30:47.088Z,9.30
2023-01-20T10:33:22.936Z,8.90
2023-01-20T10:35:51.997Z,9.77
2023-01-20T10:38:30.212Z,9.13
2023-01-20T10:41:19.746Z,9.30
2023-01-20T10:43:47.693Z,8.43
2023-01-20T10:46:50.490Z,8.60
2023-01-20T10:49:30.309Z,9.07
2023-01-20T10:52:10.749Z,9.00
2023-01-20T10:54:46.426Z,9.27
2023-01-20T10:57:15.398Z,9.07
2023-01-20T10:59:49.532Z,8.83
2023-01-20T11:02:34.968Z,9.00
2023-01-20T11:05:19.393Z,9.33
2023-01-20T11:07:46.650Z,10.07
2023-01-20T11:10:25.201Z,9.57
2023-01-20T11:12:54.615Z,9.70
2023-01-20T11:15:22.594Z,9.50
2023-01-20T11:18:13.905Z,9.10
2023-01-20T11:20:52.528Z,9.50
2023-01-20T11:23:32.394Z,10.70
2023-01-20T11:26:10.579Z,9.43
2023-01-20T11:28:48.378Z,9.40
2023-01-20T11:31:15.892Z,9.97
2023-01-20T11:33:59.350Z,9.93
2023-01-20T11:36:27.707Z,9.80
2023-01-20T11:38:56.311Z,9.80
2023-01-20T11:41:30.872Z,8.53
2023-01-20T11:43:59.540Z,9.60
2023-01-20T11:46:34.444Z,10.73
2023-01-20T11:49:22.451Z,10.23
2023-01-20T11:51:54.121Z,10.93
2023-01-20T11:54:28.283Z,10.40
2023-01-20T11:57:00.247Z,10.03
2023-01-20T11:59:32.060Z,10.23
2023-01-20T12:02:09.252Z,10.67
2023-01-20T12:04:47.165Z,11.13
2023-01-20T12:07:28.867Z,10.00
2023-01-20T12:10:05.834Z,10.87
2023-01-20T12:12:45.616Z,10.70
2023-01-20T12:15:22.055Z,10.47
2023-01-20T12:18:00.835Z,12.03
2023-01-20T12:20:49.240Z,10.50
2023-01-20T12:23:35.634Z,11.33
2023-01-20T12:26:04.283Z,11.53
2023-01-20T12:28:39.054Z,10.77
2023-01-20T12:31:07.548Z,11.03
2023-01-20T12:33:37.448Z,11.77
2023-01-20T12:36:41.500Z,11.57
2023-01-20T12:39:14.627Z,10.73
2023-01-20T12:42:09.978Z,11.03
2023-01-20T12:44:45.575Z,10.80
2023-01-20T12:47:17.183Z,11.13
2023-01-20T12:50:15.477Z,11.23
2023-01-20T12:52:54.883Z,11.27
2023-01-20T12:55:23.383Z,11.63
2023-01-20T12:57:59.937Z,11.40
2023-01-20T13:00:38.611Z,12.10
2023-01-20T13:03:23.390Z,11.23
2023-01-20T13:06:14.104Z,10.87
2023-01-20T13:09:03.891Z,12.00
2023-01-20T13:11:48.916Z,11.13
2023-01-20T13:14:18.070Z,11.33
2023-01-20T13:16:47.549Z,11.43
2023-01-20T13:19:27.551Z,11.77
2023-01-20T13:22:07.420Z,12.23
2023-01-20T13:24:34.909Z,10.43
2023-01-20T13:27:01.773Z,11.20
2023-01-20T13:29:37.456Z,10.00
2023-01-20T13:32:05.861Z,11.23
2023-01-20T13:34:33.968Z,12.80
2023-01-20T13:37:03.615Z,11.13
2023-01-20T13:39:30.167Z,11.30
2023-01-20T13:41:56.855Z,11.67
2023-01-20T13:44:35.357Z,11.97
2023-01-20T13:47:02.927Z,12.17
2023-01-20T13:49:46.625Z,11.97
2023-01-20T13:52:13.457Z,10.37
2023-01-20T13:54:45.566Z,11.23
2023-01-20T13:57:26.114Z,11.33
2023-01-20T13:59:52.613Z,12.00
2023-01-20T14:02:26.431Z,12.10
2023-01-20T14:04:54.313Z,12.63
2023-01-20T14:07:29.943Z,11.60
2023-01-20T14:09:59.526Z,12.17
2023-01-20T14:12:26.491Z,11.90
2023-01-20T14:14:53.444Z,11.70
2023-01-20T14:17:22.082Z,11.67
2023-01-20T14:19:50.244Z,12.27
2023-01-20T14:22:30.001Z,11.40
2023-01-20T14:25:01.777Z,11.87
2023-01-20T14:27:35.353Z,12.33
2023-01-20T14:30:18.906Z,12.77
2023-01-20T14:32:45.930Z,11.27
2023-01-20T14:35:18.468Z,12.63
2023-01-20T14:37:50.104Z,11.53
2023-01-20T14:40:30.993Z,11.77
2023-01-20T14:43:18.373Z,11.07
2023-01-20T14:45:47.327Z,12.10
2023-01-20T14:48:28.324Z,11.80
2023-01-20T14:51:02.596Z,11.37
2023-01-20T14:53:29.177Z,11.00
2023-01-20T14:56:01.736Z,12.30
2023-01-20T14:58:30.630Z,11.80
2023-01-20T15:01:00.845Z,12.47
2023-01-20T15:03:28.860Z,12.47
2023-01-20T15:05:58.416Z,11.70
2023-01-20T15:08:27.085Z,12.43
2023-01-20T15:11:18.943Z,12.53
2023-01-20T15:13:51.555Z,12.30
2023-01-20T15:16:25.788Z,11.77
2023-01-20T15:19:17.390Z,12.53
2023-01-20T15:21:48.644Z,12.63
2023-01-20T15:24:19.219Z,11.90
2023-01-20T15:26:46.713Z,12.33
2023-01-20T15:29:39.652Z,12.07
2023-01-20T15:32:12.521Z,12.80
2023-01-20T15:34:39.111Z,11.97
2023-01-20T15:37:11.778Z,12.53
2023-01-20T15:39:38.316Z,12.23
2023-01-20T15:42:06.315Z,12.97
2023-01-20T15:44:32.806Z,12.00
2023-01-20T15:46:59.386Z,12.63
2023-01-20T15:49:25.971Z,12.70
2023-01-20T15:51:52.833Z,12.00
2023-01-20T15:54:19.300Z,12.43
2023-01-20T15:56:47.005Z,12.70
2023-01-20T15:59:15.408Z,12.90
2023-01-20T16:01:42.249Z,12.53
2023-01-20T16:04:10.231Z,13.00
2023-01-20T16:06:37.531Z,13.23
2023-01-20T16:09:16.413Z,13.23
2023-01-20T16:11:42.982Z,13.43
2023-01-20T16:14:09.422Z,12.60
2023-01-20T16:16:35.915Z,13.23
2023-01-20T16:19:02.585Z,14.30
2023-01-20T16:21:29.056Z,13.83
2023-01-20T16:23:55.535Z,13.60
2023-01-20T16:26:27.242Z,14.80
2023-01-20T16:28:55.783Z,13.17
2023-01-20T16:31:23.455Z,13.50
2023-01-20T16:33:50.224Z,13.87
2023-01-20T16:36:19.152Z,14.87
2023-01-20T16:38:45.969Z,14.27
2023-01-20T16:41:16.976Z,14.83
2023-01-20T16:43:43.561Z,14.10
2023-01-20T16:46:13.937Z,14.00
2023-01-20T16:48:40.582Z,14.40
2023-01-20T16:51:07.153Z,14.63
2023-01-20T16:53:34.110Z,14.90
2023-01-20T16:56:01.169Z,13.47
2023-01-20T16:58:27.768Z,12.90
2023-01-20T17:00:54.259Z,13.67
2023-01-20T17:03:20.941Z,12.20
2023-01-20T17:05:47.492Z,14.60
2023-01-20T17:08:14.009Z,15.67
2023-01-20T17:10:40.542Z,15.40
2023-01-20T17:13:07.071Z,16.63
2023-01-20T17:15:33.612Z,15.50
2023-01-20T17:18:00.367Z,15.43
2023-01-20T17:20:27.348Z,16.17
2023-01-20T17:22:56.887Z,17.60
2023-01-20T17:25:23.811Z,18.67
2023-01-20T17:27:50.330Z,20.20
2023-01-20T17:30:17.340Z,20.00
2023-01-20T17:32:48.328Z,19.60
2023-01-20T17:35:15.975Z,20.07
2023-01-20T17:37:42.463Z,22.13
2023-01-20T17:40:11.124Z,22.90
2023-01-20T17:42:37.804Z,22.47
2023-01-20T17:45:04.568Z,22.57
2023-01-20T17:47:31.623Z,21.73
2023-01-20T17:49:58.187Z,20.70
2023-01-20T17:52:24.861Z,20.63
2023-01-20T17:54:51.523Z,19.27
2023-01-20T17:57:18.076Z,18.70
2023-01-20T17:59:44.616Z,19.87
2023-01-20T18:02:11.914Z,20.03
2023-01-20T18:04:38.861Z,18.40
2023-01-20T18:07:05.419Z,18.33
2023-01-20T18:09:31.899Z,20.80
2023-01-20T18:11:58.440Z,22.77
2023-01-20T18:14:25.795Z,22.00
2023-01-20T18:16:54.434Z,23.87
2023-01-20T18:19:21.027Z,23.33
2023-01-20T18:21:47.567Z,22.90
2023-01-20T18:24:14.053Z,21.00
2023-01-20T18:26:42.684Z,22.77
2023-01-20T18:29:14.784Z,21.27
2023-01-20T18:31:41.885Z,20.27
2023-01-20T18:34:11.126Z,27.97
2023-01-20T18:36:40.555Z,26.67
2023-01-20T18:39:16.080Z,24.53
2023-01-20T18:41:43.263Z,22.17
2023-01-20T18:44:09.949Z,19.93
2023-01-20T18:46:36.776Z,21.80
2023-01-20T18:49:03.407Z,21.67
2023-01-20T18:51:30.304Z,23.40
2023-01-20T18:54:02.064Z,23.20
2023-01-20T18:56:29.182Z,23.53
2023-01-20T18:58:55.908Z,22.77
2023-01-20T19:01:28.836Z,24.93
2023-01-20T19:03:55.529Z,24.93
2023-01-20T19:06:24.191Z,27.10
2023-01-20T19:08:50.942Z,26.60
2023-01-20T19:11:19.619Z,27.17
2023-01-20T19:13:48.639Z,27.30
2023-01-20T19:16:15.314Z,25.77
2023-01-20T19:18:43.264Z,25.10
2023-01-20T19:21:12.489Z,24.93
2023-01-20T19:23:39.260Z,27.53
2023-01-20T19:26:10.911Z,28.07
2023-01-20T19:28:37.752Z,26.47
2023-01-20T19:31:12.471Z,24.13
2023-01-20T19:33:40.190Z,22.87
2023-01-20T19:36:10.319Z,21.83
2023-01-20T19:38:36.922Z,20.77
2023-01-20T19:41:06.478Z,24.10
2023-01-20T19:43:33.211Z,21.67
2023-01-20T19:46:08.367Z,20.53
2023-01-20T19:48:35.092Z,19.53
2023-01-20T19:51:10.972Z,20.30
2023-01-20T19:53:37.513Z,19.17
2023-01-20T19:56:12.622Z,18.77
2023-01-20T19:58:39.632Z,18.20
2023-01-20T20:01:16.791Z,17.30
2023-01-20T20:03:43.775Z,18.37
2023-01-20T20:06:28.937Z,18.83
2023-01-20T20:09:12.003Z,18.70
2023-01-20T20:11:38.610Z,17.97
2023-01-20T20:14:07.520Z,19.90
2023-01-20T20:16:35.595Z,19.57
2023-01-20T20:19:02.300Z,19.53
2023-01-20T20:21:28.779Z,18.80
2023-01-20T20:23:57.437Z,21.80
2023-01-20T20:26:26.688Z,23.73
2023-01-20T20:28:53.546Z,24.77
2023-01-20T20:31:20.178Z,23.03
2023-01-20T20:33:46.876Z,23.13
2023-01-20T20:36:13.475Z,23.13
2023-01-20T20:38:39.888Z,21.50
2023-01-20T20:41:10.743Z,21.53
2023-01-20T20:43:38.047Z,21.53
2023-01-20T20:46:06.083Z,21.43
2023-01-20T20:48:33.615Z,21.00
2023-01-20T20:51:07.538Z,19.73
2023-01-20T20:53:34.051Z,21.10
2023-01-20T20:56:03.970Z,22.60
2023-01-20T20:58:31.700Z,22.97
2023-01-20T21:01:01.009Z,21.33
2023-01-20T21:03:27.821Z,21.60
2023-01-20T21:05:54.269Z,20.47
2023-01-20T21:08:20.696Z,20.23
2023-01-20T21:10:47.334Z,21.03
2023-01-20T21:13:13.750Z,20.13
2023-01-20T21:15:40.181Z,21.43
2023-01-20T21:18:06.696Z,20.63
2023-01-20T21:20:33.534Z,19.40
2023-01-20T21:23:00.918Z,20.53
2023-01-20T21:25:27.733Z,21.43
2023-01-20T21:27:54.191Z,21.17
2023-01-20T21:30:20.636Z,20.60
2023-01-20T21:32:47.072Z,20.43
2023-01-20T21:35:13.506Z,21.20
2023-01-20T21:37:39.965Z,20.57
2023-01-20T21:40:06.883Z,21.20
2023-01-20T21:42:33.327Z,20.27
2023-01-20T21:44:59.745Z,19.30
2023-01-20T21:47:26.180Z,18.87
2023-01-20T21:50:11.291Z,20.27
2023-01-20T21:52:45.257Z,18.80
2023-01-20T21:55:15.869Z,18.83
2023-01-20T21:57:42.540Z,18.80
2023-01-20T22:00:10.823Z,18.73
2023-01-20T22:02:37.290Z,19.60
2023-01-20T22:05:03.860Z,19.27
2023-01-20T22:07:31.307Z,18.40
2023-01-20T22:09:58.311Z,19.47
2023-01-20T22:12:24.951Z,18.30
2023-01-20T22:14:51.364Z,17.70
2023-01-20T22:17:17.796Z,19.57
2023-01-20T22:19:44.212Z,18.47
2023-01-20T22:22:10.924Z,18.73
2023-01-20T22:24:37.672Z,18.47
2023-01-20T22:27:04.325Z,19.47
2023-01-20T22:29:31.322Z,18.07
2023-01-20T22:31:59.387Z,19.83
2023-01-20T22:34:26.214Z,19.13
2023-01-20T22:36:55.089Z,19.43
2023-01-20T22:39:21.496Z,19.80
2023-01-20T22:41:47.936Z,19.00
2023-01-20T22:44:14.394Z,20.20
2023-01-20T22:46:40.873Z,20.70
2023-01-20T22:49:07.339Z,20.80
2023-01-20T22:51:33.755Z,19.90
2023-01-20T22:54:01.253Z,19.90
2023-01-20T22:56:32.900Z,21.20
2023-01-20T22:59:00.211Z,18.83
2023-01-20T23:01:30.438Z,19.83
2023-01-20T23:03:58.671Z,19.00
2023-01-20T23:06:26.582Z,21.57
2023-01-20T23:08:53.188Z,20.70
2023-01-20T23:11:21.951Z,19.63
2023-01-20T23:13:48.494Z,20.70
2023-01-20T23:16:17.680Z,19.97
2023-01-20T23:18:45.303Z,19.47
2023-01-20T23:21:12.194Z,20.30
2023-01-20T23:23:38.921Z,20.17
2023-01-20T23:26:10.787Z,19.63
2023-01-20T23:28:37.233Z,19.13
2023-01-20T23:31:06.631Z,17.73
2023-01-20T23:33:33.529Z,19.53
2023-01-20T23:36:17.158Z,19.83
2023-01-20T23:38:44.602Z,19.43
2023-01-20T23:41:12.551Z,19.53
2023-01-20T23:43:39.030Z,19.53
2023-01-20T23:46:06.099Z,20.10
2023-01-20T23:48:33.163Z,20.53
2023-01-20T23:51:02.579Z,19.87
2023-01-20T23:53:31.087Z,19.87
2023-01-20T23:56:05.624Z,19.33
2023-01-20T23:58:32.159Z,19.33
